Ana Sayfa
METAR-TAF:

METAR-TAF

Havaalanları :

Etimesgut Havalimanı

Ankara Etimesgut, Türkiye

Enlem: 39-57N, Boylam: 032-41E, yükseklik: 799 m

METAR: eksik

Saat: 10:35 (07:35 UTC)

Tahmin

Rapor saat 04:40 UTC de 2 saat ve 55 dakika önce yapıldı.
Ayın 21'si saat 06 UTC'den ayın 21'si saat 15 UTC'ye kadar geçerli Tahmin
Rüzgar değişken yönden 2 kt
Görüş mesafesi 10 km veya daha fazla
4000 ft yükseklikte parçalı bulutlu
10000 ft yükseklikte parçalı bulutlu
20000 ft yükseklikte parçalı çok bulutlu
Geçici
ayın 21'si saat 10 UTC'den ayın 21'si saat 14 UTC'ye kadar
3500 ft yükseklikte parçalı çok bulutlu
9000 ft yükseklikte parçalı çok bulutlu
hafif sağanak yağmurlar

TAF: LTAD 210440Z 2106/2115 VRB02KT 9999 SCT040 SCT100 BKN200 TEMPO 2110/2114 -SHRA BKN035 BKN090

4.000'den fazla havaalanı için hava durumu gözlemleri ve tahminleri (METAR ve TAF raporları).

Kullanılabilir istasyonlar harita üzerinde sarı ve kırmızı noktalarla gösterilir.

İstasyonun adını görmek için fareyi noktanın üzerinde gezdirin.

Sonrasında hava gözlem ve tahminlerini görmek için tıklayın.

Haritayı değiştirmek için: yaklaştırmak için siyah artı işaretli yeşil düğmeye ve uzaklaştırmak için de eksi işaretli düğmeye hızla tıklayın; bitişik haritalar için yeşil okları kullanın.


METAR-TAF: